Flight Track Log - Related Links

Times and Time Zones

All times are in EDT time to prevent confusion due to time zone crossing. See the N717AN flight status page for this flight to view local times or setup timezone preferences in your user account.

Time Position Orientation Groundspeed Altitude Reporting Facility
EDT Latitude Longitude Course Direction KTS MPH feet Rate Location/Type
Tue 11:00:32 PM 40.6540 -73.7610 31° Northeast 177 204 700  Level FlightAware ADS-B
Tue 11:00:47 PM 40.6610 -73.7470 57° Northeast 181 208 1,400 2,400 Climbing FlightAware ADS-B
Tue 11:00:57 PM 40.6620 -73.7360 83° East 189 217 1,700 1,500 Climbing FlightAware ADS-B
Tue 11:01:27 PM 40.6580 -73.6990 98° East 225 259 2,400 1,200 Climbing FlightAware ADS-B
Tue 11:01:42 PM 40.6480 -73.6830 129° Southeast 253 291 2,600 1,400 Climbing FlightAware ADS-B
Tue 11:01:57 PM 40.6310 -73.6720 154° Southeast 266 306 3,100 2,250 Climbing FlightAware ADS-B
Tue 11:02:22 PM 40.6000 -73.6630 168° South 277 319 4,100 2,400 Climbing FlightAware ADS-B
Tue 11:02:52 PM 40.5620 -73.6520 168° South 285 328 5,300 2,679 Climbing FlightAware ADS-B
Tue 11:03:18 PM 40.5253 -73.6413 168° South 288 331 6,600 2,743 Climbing FlightAware ADS-B
Tue 11:03:27 PM 40.5146 -73.6361 160° South 291 335 6,900 2,000 Climbing FlightAware ADS-B
Tue 11:03:33 PM 40.5067 -73.6314 156° South 293 337 7,100 2,100 Climbing FlightAware ADS-B
Tue 11:03:47 PM 40.4906 -73.6200 152° Southeast 297 342 7,600 2,143 Climbing FlightAware ADS-B
Tue 11:04:01 PM 40.4728 -73.6067 150° Southeast 302 348 8,100 2,357 Climbing FlightAware ADS-B
Tue 11:04:15 PM 40.4556 -73.5940 151° Southeast 304 350 8,700 2,323 Climbing FlightAware ADS-B
Tue 11:04:32 PM 40.4354 -73.5787 150° Southeast 308 354 9,300 2,063 Climbing FlightAware ADS-B
Tue 11:04:47 PM 40.4165 -73.5644 150° Southeast 314 361 9,800 1,313 Climbing FlightAware ADS-B
Tue 11:05:04 PM 40.3946 -73.5477 150° Southeast 335 386 10,000 766 Climbing FlightAware ADS-B
Tue 11:05:34 PM 40.3507 -73.5145 150° Southeast 367 422 10,400 1,279 Climbing FlightAware ADS-B
Tue 11:06:05 PM 40.3034 -73.4784 150° Southeast 388 447 11,300 1,839 Climbing FlightAware ADS-B
Tue 11:06:36 PM 40.2535 -73.4403 150° Southeast 409 471 12,300 2,419 Climbing FlightAware ADS-B
Tue 11:07:07 PM 40.2025 -73.4024 150° Southeast 412 474 13,800 2,857 Climbing FlightAware ADS-B
Tue 11:07:39 PM 40.1489 -73.3623 150° Southeast 419 482 15,300 2,625 Climbing FlightAware ADS-B
Tue 11:08:11 PM 40.0940 -73.3212 150° Southeast 425 489 16,600 2,400 Climbing FlightAware ADS-B
Tue 11:08:44 PM 40.0386 -73.2798 150° Southeast 430 495 17,900 2,239 Climbing FlightAware ADS-B
Tue 11:09:18 PM 39.9777 -73.2347 150° Southeast 442 509 19,100 2,308 Climbing FlightAware ADS-B
Tue 11:09:49 PM 39.9223 -73.1938 150° Southeast 443 510 20,400 2,400 Climbing FlightAware ADS-B
Tue 11:10:23 PM 39.8629 -73.1498 150° Southeast 446 513 21,700 2,031 Climbing FlightAware ADS-B
Tue 11:10:54 PM 39.8069 -73.1085 150° Southeast 453 521 22,600 1,279 Climbing FlightAware ADS-B
Tue 11:11:24 PM 39.7513 -73.0673 150° Southeast 463 533 23,000 690 Climbing FlightAware ADS-B
Tue 11:12:21 PM 39.6440 -72.9879 150° Southeast 463 533 23,600 1,163 Climbing FlightAware ADS-B
Tue 11:13:02 PM 39.5681 -72.9320 150° Southeast 468 539 24,900 1,865 Climbing FlightAware ADS-B
Tue 11:13:35 PM 39.5060 -72.8863 150° Southeast 468 539 25,900 1,380 Climbing FlightAware ADS-B
Tue 11:14:42 PM 39.3850 -72.7980 151° Southeast 480 552 27,200 1,263 Climbing FlightAware ADS-B
Tue 11:14:51 PM 39.3579 -72.7780 150° Southeast 473 544 27,500 1,600 Climbing FlightAware ADS-B
Tue 11:15:27 PM 39.2873 -72.7264 150° Southeast 497 572 28,400 1,412 Climbing FlightAware ADS-B
Tue 11:15:59 PM 39.2238 -72.6802 151° Southeast 501 577 29,100 1,636 Climbing FlightAware ADS-B
Tue 11:16:33 PM 39.1531 -72.6290 151° Southeast 503 579 30,200 1,310 Climbing FlightAware ADS-B
Tue 11:17:26 PM 39.0489 -72.5534 151° Southeast 496 571 31,000 480 Climbing FlightAware ADS-B
Tue 11:18:13 PM 38.9549 -72.4855 151° Southeast 498 573 31,000  Level FlightAware ADS-B
Tue 11:19:01 PM 38.8581 -72.4159 151° Southeast 498 573 31,000  Level FlightAware ADS-B
Tue 11:19:32 PM 38.7956 -72.3711 151° Southeast 494 568 31,000  Level FlightAware ADS-B
Tue 11:20:03 PM 38.7343 -72.3272 151° Southeast 493 567 31,000  Level FlightAware ADS-B
Tue 11:20:39 PM 38.6631 -72.2763 151° Southeast 490 564 31,000  Level FlightAware ADS-B
Tue 11:21:11 PM 38.5996 -72.2310 151° Southeast 489 563 31,000  Level FlightAware ADS-B
Tue 11:21:42 PM 38.5372 -72.1866 151° Southeast 489 563 31,000  Level FlightAware ADS-B
Tue 11:22:16 PM 38.4710 -72.1396 151° Southeast 487 560 31,000  Level FlightAware ADS-B
Tue 11:23:09 PM 38.3675 -72.0663 151° Southeast 484 557 31,000 -50 Level FlightAware ADS-B
Tue 11:24:16 PM 38.2461 -71.9811 151° Southeast 488 562 30,900 472 Descending New York Center
Tue 11:25:16 PM 38.1303 -71.9025 152° Southeast 483 556 32,000 500 Climbing New York Center
Tue 11:26:16 PM 38.0183 -71.8242 151° Southeast 469 540 31,900  Descending New York Center
Tue 11:27:15 PM 37.9064 -71.7436 150° Southeast 464 534 32,000  Climbing New York Center
Tue 11:28:16 PM 37.7964 -71.6658 151° Southeast 452 520 31,900 -49 Descending New York Center
Tue 11:29:17 PM 37.6844 -71.5911 152° Southeast 452 520 31,900  Level New York Center
Tue 11:30:15 PM 37.5744 -71.5058 148° Southeast 457 526 31,900 51 Level New York Center
Tue 11:31:14 PM 37.4622 -71.4392 155° Southeast 457 526 32,000  Climbing New York Center
Tue 11:32:15 PM 37.3728 -71.3939 158° South 449 517 31,900  Descending New York Center
Tue 11:33:15 PM 37.2397 -71.3119 154° Southeast 444 511 32,000 53 Climbing New York Center
Tue 11:34:09 PM 37.4833 -71.4500 155° Southeast 443 510 32,000  Level New York Oceanic (ODAPS)
Tue 11:35:15 PM 37.0503 -71.1933 155° Southeast 437 503 32,000  Level New York Center
Tue 11:36:16 PM 36.9233 -71.1197 155° Southeast 437 503 32,000  Level New York Center
Tue 11:38:00 PM 36.7179 -70.9979 155° Southeast  Level FlightAware Approximate
Tue 11:41:53 PM 36.3167 -70.7667 155° Southeast 432 497 32,000  Level New York Oceanic (ODAPS)
Tue 11:45:00 PM 35.8870 -70.5123 155° Southeast  Level FlightAware Approximate
Tue 11:46:00 PM 35.7681 -70.4438 155° Southeast  Level FlightAware Approximate
Tue 11:47:00 PM 35.6412 -70.4044 168° South  Level FlightAware Approximate
Tue 11:47:02 PM 35.7667 -70.4500 168° South 415 478 32,000  Level New York Oceanic (ODAPS)
Tue 11:48:00 PM 35.6481 -70.4186 168° South 432 497 32,000  Level FlightAware Transoceanic
Tue 11:49:00 PM 35.5296 -70.3874 168° South 432 497 32,000  Level FlightAware Transoceanic
Tue 11:50:00 PM 35.4110 -70.3562 168° South 432 497 32,000  Level FlightAware Transoceanic
Tue 11:51:00 PM 35.2924 -70.3251 168° South 432 497 32,000  Level FlightAware Transoceanic
Tue 11:52:00 PM 35.1738 -70.2941 168° South 432 497 32,000  Level FlightAware Transoceanic
Tue 11:53:00 PM 35.0722 -70.2676 168° South 415 478 32,000  Level FlightAware Transoceanic
Tue 11:54:00 PM 34.9564 -70.2375 168° South 415 478 32,000  Level FlightAware Transoceanic
Tue 11:54:07 PM 35.0333 -70.2500 168° South 421 484 32,000  Level New York Oceanic (ODAPS)
Tue 11:54:28 PM 34.9500 -70.2333 168° South 422 486 32,000  Level New York Oceanic (ODAPS)
Tue 11:55:00 PM 34.8406 -70.2074 168° South 415 478 32,000  Level FlightAware Transoceanic
Tue 11:56:00 PM 34.7248 -70.1775 168° South 415 478 32,000  Level FlightAware Transoceanic
Tue 11:57:00 PM 34.6090 -70.1477 168° South 415 478 32,000  Level FlightAware Transoceanic
Tue 11:58:00 PM 34.4932 -70.1179 168° South 415 478 32,000  Level FlightAware Transoceanic
Tue 11:59:00 PM 34.3774 -70.0882 168° South 415 478 32,000  Level FlightAware Transoceanic
Wed 12:00:00 AM 34.2563 -70.0552 168° South 422 486 32,000  Level FlightAware Transoceanic
Wed 12:01:00 AM 34.1407 -70.0258 168° South 422 486 32,000  Level FlightAware Transoceanic
Wed 12:02:00 AM 34.0250 -69.9965 168° South 422 486 32,000  Level FlightAware Transoceanic
Wed 12:03:00 AM 33.9094 -69.9673 168° South 422 486 32,000  Level FlightAware Transoceanic
Wed 12:04:00 AM 33.7937 -69.9381 168° South 422 486 32,000  Level FlightAware Transoceanic
Wed 12:05:00 AM 33.6780 -69.9090 168° South 422 486 32,000  Level FlightAware Transoceanic
Wed 12:06:00 AM 33.5623 -69.8800 168° South 422 486 32,000  Level FlightAware Transoceanic
Wed 12:07:00 AM 33.4467 -69.8511 168° South 422 486 32,000  Level FlightAware Transoceanic
Wed 12:08:00 AM 33.3310 -69.8223 168° South 422 486 32,000  Level FlightAware Transoceanic
Wed 12:09:00 AM 33.2153 -69.7935 168° South 422 486 32,000  Level FlightAware Transoceanic
Wed 12:10:00 AM 33.0996 -69.7648 168° South 422 486 32,000 -652 Level FlightAware Transoceanic
Wed 12:10:32 AM 33.3000 -69.8167 168° South 426 490 31,000  Descending New York Oceanic (ODAPS)
Wed 12:11:00 AM 32.9838 -69.7362 168° South 422 486 32,000 682 Climbing FlightAware Transoceanic
Wed 12:12:00 AM 32.8681 -69.7076 168° South 422 486 32,000  Level FlightAware Transoceanic
Wed 12:13:00 AM 32.7524 -69.6792 168° South 422 486 32,000  Level FlightAware Transoceanic
Wed 12:14:00 AM 32.6367 -69.6508 168° South 422 486 32,000  Level FlightAware Transoceanic
Wed 12:15:00 AM 32.5210 -69.6224 168° South 422 486 32,000 -500 Level FlightAware Transoceanic
Wed 12:16:00 AM 32.6146 -69.6468 168° South 426 490 31,000 -500 Descending FlightAware Transoceanic
Wed 12:17:00 AM 32.5003 -69.6188 168° South 426 490 31,000  Level FlightAware Transoceanic
Wed 12:18:00 AM 32.3860 -69.5908 168° South 426 490 31,000  Level FlightAware Transoceanic
Wed 12:18:16 AM 32.4333 -69.6000 168° South 427 491 31,000  Level New York Oceanic (ODAPS)
Wed 12:19:00 AM 32.2718 -69.5629 168° South 426 490 31,000  Level FlightAware Transoceanic
Wed 12:20:00 AM 32.1575 -69.5351 168° South 426 490 31,000  Level FlightAware Transoceanic
Wed 12:21:00 AM 32.0432 -69.5073 168° South 426 490 31,000  Level FlightAware Transoceanic
Wed 12:22:00 AM 31.9289 -69.4796 168° South 426 490 31,000  Level FlightAware Transoceanic
Wed 12:23:00 AM 31.8146 -69.4520 168° South 426 490 31,000  Level FlightAware Transoceanic
Wed 12:23:37 AM 31.8833 -69.4667 168° South 447 514 31,000  Level New York Oceanic (ODAPS)
Wed 12:24:00 AM 31.7763 -69.4414 168° South 427 491 31,000  Level FlightAware Transoceanic
Wed 12:25:00 AM 31.6668 -69.4152 168° South 427 491 31,000  Level FlightAware Transoceanic
Wed 12:26:00 AM 31.5573 -69.3890 169° South 427 491 31,000  Level FlightAware Transoceanic
Wed 12:27:00 AM 31.4477 -69.3629 169° South 427 491 31,000  Level FlightAware Transoceanic
Wed 12:28:00 AM 31.3382 -69.3369 169° South 427 491 31,000  Level FlightAware Transoceanic
Wed 12:29:00 AM 31.2287 -69.3109 169° South 427 491 31,000  Level FlightAware Transoceanic
Wed 12:30:00 AM 31.1185 -69.2848 169° South 447 514 31,000  Level FlightAware Transoceanic
Wed 12:31:00 AM 31.0093 -69.2590 169° South 447 514 31,000  Level FlightAware Transoceanic
Wed 12:32:00 AM 30.9000 -69.2333 168° South 447 514 31,000  Level FlightAware Transoceanic
Wed 12:32:15 AM 30.9000 -69.2333 168° South 439 505 31,000  Level New York Oceanic (ODAPS)
Wed 12:33:00 AM 30.7713 -69.2026 168° South 447 514 31,000  Level FlightAware Transoceanic
Wed 12:34:00 AM 30.6425 -69.1720 168° South 447 514 31,000  Level FlightAware Transoceanic
Wed 12:35:00 AM 30.5138 -69.1415 168° South 447 514 31,000  Level FlightAware Transoceanic
Wed 12:36:00 AM 30.3851 -69.1111 168° South 447 514 31,000  Level FlightAware Transoceanic
Wed 12:37:00 AM 30.2563 -69.0807 169° South 447 514 31,000  Level FlightAware Transoceanic
Wed 12:37:31 AM 30.2833 -69.0833 169° South 438 504 31,000  Level New York Oceanic (ODAPS)
Wed 12:38:00 AM 30.1381 -69.0529 169° South 439 505 31,000  Level FlightAware Transoceanic
Wed 12:39:00 AM 30.0112 -69.0231 169° South 439 505 31,000  Level FlightAware Transoceanic
Wed 12:40:00 AM 29.8841 -68.9934 169° South 439 505 31,000  Level FlightAware Transoceanic
Wed 12:41:00 AM 29.7571 -68.9637 169° South 439 505 31,000  Level FlightAware Transoceanic
Wed 12:42:00 AM 29.6301 -68.9342 169° South 439 505 31,000  Level FlightAware Transoceanic
Wed 12:43:00 AM 29.5197 -68.9051 169° South 438 504 31,000  Level FlightAware Transoceanic
Wed 12:44:00 AM 29.3924 -68.8757 169° South 438 504 31,000  Level FlightAware Transoceanic
Wed 12:45:00 AM 29.2651 -68.8463 169° South 438 504 31,000  Level FlightAware Transoceanic
Wed 12:46:00 AM 29.1378 -68.8170 169° South 438 504 31,000  Level FlightAware Transoceanic
Wed 12:47:00 AM 29.0105 -68.7878 169° South 438 504 31,000  Level FlightAware Transoceanic
Wed 12:48:00 AM 28.8831 -68.7587 169° South 438 504 31,000  Level FlightAware Transoceanic
Wed 12:49:00 AM 28.7558 -68.7296 169° South 438 504 31,000  Level FlightAware Transoceanic
Wed 12:49:21 AM 28.8167 -68.7333 169° South 453 521 31,000  Level New York Oceanic (ODAPS)
Wed 12:50:00 AM 28.6285 -68.7006 169° South 438 504 31,000  Level FlightAware Transoceanic
Wed 12:51:00 AM 28.5011 -68.6717 169° South 438 504 31,000  Level FlightAware Transoceanic
Wed 12:51:15 AM 28.5833 -68.6833 169° South 454 522 31,000  Level New York Oceanic (ODAPS)
Wed 12:52:00 AM 28.3738 -68.6428 169° South 438 504 31,000  Level FlightAware Transoceanic
Wed 12:53:00 AM 28.2464 -68.6140 169° South 438 504 31,000  Level FlightAware Transoceanic
Wed 12:53:59 AM 28.2500 -68.6167 169° South 474 545 31,000  Level New York Oceanic (ODAPS)
Wed 12:54:00 AM 28.1190 -68.5853 169° South 438 504 31,000  Level FlightAware Transoceanic
Wed 12:55:00 AM 28.0460 -68.5598 169° South 453 521 31,000  Level FlightAware Transoceanic
Wed 12:56:00 AM 27.9176 -68.5312 169° South 453 521 31,000  Level FlightAware Transoceanic
Wed 12:56:33 AM 27.9333 -68.5333 169° South 460 529 31,000  Level New York Oceanic (ODAPS)
Wed 12:57:00 AM 27.8100 -68.5097 169° South 454 522 31,000  Level FlightAware Transoceanic
Wed 12:58:00 AM 27.6811 -68.4810 169° South 454 522 31,000  Level FlightAware Transoceanic
Wed 12:59:00 AM 27.5522 -68.4523 169° South 454 522 31,000  Level FlightAware Transoceanic
Wed 01:00:00 AM 27.4703 -68.4417 169° South 474 545 31,000  Level FlightAware Transoceanic
Wed 01:01:00 AM 27.3404 -68.4127 169° South 474 545 31,000  Level FlightAware Transoceanic
Wed 01:02:00 AM 27.1605 -68.3624 169° South 460 529 31,000  Level FlightAware Transoceanic
Wed 01:03:00 AM 27.0317 -68.3341 169° South 460 529 31,000  Level FlightAware Transoceanic
Wed 01:04:00 AM 26.9029 -68.3059 169° South 460 529 31,000  Level FlightAware Transoceanic
Wed 01:05:00 AM 26.7740 -68.2778 169° South 460 529 31,000  Level FlightAware Transoceanic
Wed 01:05:15 AM 26.9167 -68.3167 169° South 465 535 31,000  Level New York Oceanic (ODAPS)
Wed 01:06:00 AM 26.6452 -68.2498 169° South 460 529 31,000  Level FlightAware Transoceanic
Wed 01:07:00 AM 26.5164 -68.2218 169° South 460 529 31,000  Level FlightAware Transoceanic
Wed 01:08:00 AM 26.3875 -68.1938 169° South 460 529 31,000  Level FlightAware Transoceanic
Wed 01:09:00 AM 26.2587 -68.1659 169° South 460 529 31,000  Level FlightAware Transoceanic
Wed 01:10:00 AM 26.1298 -68.1381 169° South 460 529 31,000  Level FlightAware Transoceanic
Wed 01:11:00 AM 26.1416 -68.1472 169° South 465 535 31,000  Level FlightAware Transoceanic
Wed 01:12:00 AM 26.0124 -68.1192 169° South 465 535 31,000  Level FlightAware Transoceanic
Wed 01:13:00 AM 25.8832 -68.0912 169° South 465 535 31,000  Level FlightAware Transoceanic
Wed 01:14:00 AM 25.7540 -68.0633 169° South 465 535 31,000  Level FlightAware Transoceanic
Wed 01:15:00 AM 25.6248 -68.0355 169° South 465 535 31,000  Level FlightAware Transoceanic
Wed 01:16:00 AM 25.4955 -68.0077 169° South 465 535 31,000  Level FlightAware Transoceanic
Wed 01:17:00 AM 25.3663 -67.9800 169° South 465 535 31,000  Level FlightAware Transoceanic
Wed 01:17:21 AM 25.4667 -68.0000 169° South 458 527 31,000  Level New York Oceanic (ODAPS)
Wed 01:18:00 AM 25.2371 -67.9523 169° South 465 535 31,000  Level FlightAware Transoceanic
Wed 01:19:00 AM 25.1078 -67.9247 169° South 465 535 31,000  Level FlightAware Transoceanic
Wed 01:19:09 AM 25.2333 -67.9500 169° South 456 525 31,000  Level New York Oceanic (ODAPS)
Wed 01:20:00 AM 24.9786 -67.8972 169° South 465 535 31,000  Level FlightAware Transoceanic
Wed 01:21:00 AM 24.8494 -67.8697 169° South 465 535 31,000  Level FlightAware Transoceanic
Wed 01:22:00 AM 24.7201 -67.8422 169° South 465 535 31,000  Level FlightAware Transoceanic
Wed 01:23:00 AM 24.6705 -67.8306 169° South 458 527 31,000  Level FlightAware Transoceanic
Wed 01:24:00 AM 24.5377 -67.8025 169° South 458 527 31,000  Level FlightAware Transoceanic
Wed 01:25:00 AM 24.4586 -67.7858 169° South 456 525 31,000  Level FlightAware Transoceanic
Wed 01:26:00 AM 24.3295 -67.7586 169° South 456 525 31,000  Level FlightAware Transoceanic
Wed 01:26:44 AM 24.2667 -67.7500 169° South 466 536 31,000  Level New York Oceanic (ODAPS)
Wed 01:27:00 AM 24.2004 -67.7315 169° South 456 525 31,000  Level FlightAware Transoceanic
Wed 01:28:00 AM 24.0712 -67.7044 169° South 456 525 31,000  Level FlightAware Transoceanic
Wed 01:29:00 AM 23.9421 -67.6774 169° South 456 525 31,000  Level FlightAware Transoceanic
Wed 01:30:00 AM 23.8129 -67.6504 169° South 456 525 31,000  Level FlightAware Transoceanic
Wed 01:31:00 AM 23.6838 -67.6235 169° South 456 525 31,000 1,081 Level FlightAware Transoceanic
Wed 01:31:51 AM 23.6000 -67.7000 169° South 440 506 33,000 2,182 Climbing San Juan Center
Wed 01:31:55 AM 23.6167 -67.6000 169° South 472 543 33,000 -13,333 Level New York Oceanic (ODAPS)
Wed 01:32:00 AM 23.6043 -67.6105 169° South 466 536 31,000  Descending FlightAware Transoceanic
Wed 01:32:19 AM 23.5833 -67.6000 169° South 473 544 33,000 2,353 Climbing New York Oceanic (ODAPS)
Wed 01:32:51 AM 23.4667 -67.7167 169° South 450 518 33,000  Level San Juan Center
Wed 01:32:52 AM 23.5167 -67.5833 169° South 477 549 33,000 -13,333 Level New York Oceanic (ODAPS)
Wed 01:33:00 AM 23.4719 -67.5827 169° South 466 536 31,000  Descending FlightAware Transoceanic
Wed 01:33:51 AM 23.3333 -67.7167 169° South 440 506 33,000  Climbing San Juan Center
Wed 01:34:00 AM 23.3394 -67.5550 169° South 466 536 31,000  Descending FlightAware Transoceanic
Wed 01:34:51 AM 23.2167 -67.6833 165° South 450 518 33,000  Climbing San Juan Center
Wed 01:35:00 AM 23.2069 -67.5274 169° South 466 536 31,000  Descending FlightAware Transoceanic
Wed 01:35:52 AM 23.0833 -67.6667 173° South 470 541 33,000  Climbing San Juan Center
Wed 01:36:00 AM 23.0744 -67.4998 169° South 466 536 31,000  Descending FlightAware Transoceanic
Wed 01:36:52 AM 22.9667 -67.5833 147° Southeast 480 552 33,000  Climbing San Juan Center
Wed 01:37:00 AM 22.9419 -67.4723 169° South 466 536 31,000  Descending FlightAware Transoceanic
Wed 01:37:52 AM 22.8333 -67.5167 155° Southeast 500 575 33,000 1,062 Climbing San Juan Center
Wed 01:38:53 AM 22.7167 -67.4333 147° Southeast 500 575 33,000  Level San Juan Center
Wed 01:39:53 AM 22.5833 -67.3833 161° South 490 564 33,000  Level San Juan Center
Wed 01:40:53 AM 22.4667 -67.3667 172° South 480 552 33,000  Level San Juan Center
Wed 01:41:54 AM 22.3333 -67.3333 167° South 480 552 33,000  Level San Juan Center
Wed 01:42:54 AM 22.2000 -67.3167 173° South 480 552 33,000  Level San Juan Center
Wed 01:43:07 AM 22.2333 -67.3167 170° South 482 555 33,000  Level New York Oceanic (ODAPS)
Wed 01:43:54 AM 22.0667 -67.2833 170° South 480 552 33,000  Level San Juan Center
Wed 01:44:55 AM 21.9333 -67.2500 167° South 480 552 33,000  Level San Juan Center
Wed 01:45:54 AM 21.8000 -67.2333 173° South 480 552 33,000  Level San Juan Center
Wed 01:46:55 AM 21.6667 -67.2000 167° South 480 552 33,000  Level San Juan Center
Wed 01:47:55 AM 21.5333 -67.1833 173° South 480 552 33,000  Level San Juan Center
Wed 01:48:55 AM 21.4167 -67.1500 165° South 490 564 33,000  Level San Juan Center
Wed 01:54:32 AM 20.6660 -66.9200 165° South 496 571 33,000  Level FlightAware ADS-B
Wed 01:55:17 AM 20.5670 -66.8900 164° South 496 571 33,000  Level FlightAware ADS-B
Wed 01:56:02 AM 20.4640 -66.8590 164° South 498 573 33,000  Level FlightAware ADS-B
Wed 01:56:42 AM 20.3710 -66.8310 164° South 500 575 33,000  Level FlightAware ADS-B
Wed 01:57:22 AM 20.2840 -66.8050 164° South 503 579 33,000  Level FlightAware ADS-B
Wed 01:58:07 AM 20.1770 -66.7730 164° South 503 579 33,000  Level FlightAware ADS-B
Wed 01:58:47 AM 20.0890 -66.7470 164° South 503 579 33,000  Level FlightAware ADS-B
Wed 01:59:27 AM 19.9990 -66.7200 164° South 502 578 33,000  Level FlightAware ADS-B
Wed 02:00:12 AM 19.8990 -66.6900 164° South 502 578 33,000  Level FlightAware ADS-B
Wed 02:00:52 AM 19.8120 -66.6640 164° South 503 579 33,000  Level FlightAware ADS-B
Wed 02:01:37 AM 19.7080 -66.6330 164° South 503 579 33,000  Level FlightAware ADS-B
Wed 02:02:17 AM 19.6190 -66.6060 164° South 502 578 33,000  Level FlightAware ADS-B
Wed 02:02:57 AM 19.5290 -66.5800 165° South 500 575 33,000  Level FlightAware ADS-B
Wed 02:03:42 AM 19.4280 -66.5500 164° South 500 575 33,000  Level FlightAware ADS-B
Wed 02:04:22 AM 19.3400 -66.5230 164° South 502 578 33,000  Level FlightAware ADS-B
Wed 02:05:07 AM 19.2360 -66.4920 164° South 503 579 33,000  Level FlightAware ADS-B
Wed 02:05:47 AM 19.1450 -66.4650 164° South 503 579 33,000  Level FlightAware ADS-B
Wed 02:06:32 AM 19.0470 -66.4360 164° South 504 580 33,000  Level FlightAware ADS-B
Wed 02:07:12 AM 18.9570 -66.4100 165° South 502 578 33,000  Level FlightAware ADS-B
Wed 02:07:52 AM 18.8680 -66.3840 165° South 500 575 33,000  Level FlightAware ADS-B
Wed 02:08:37 AM 18.7650 -66.3530 164° South 500 575 33,000  Level FlightAware ADS-B
Wed 02:09:17 AM 18.6770 -66.3270 164° South 499 574 33,000  Level FlightAware ADS-B
Wed 02:09:57 AM 18.5860 -66.3000 164° South 499 574 33,000  Level FlightAware ADS-B
Wed 02:10:42 AM 18.4880 -66.2720 165° South 502 578 33,000  Level FlightAware ADS-B
Wed 02:11:22 AM 18.3980 -66.2450 164° South 504 580 33,000  Level FlightAware ADS-B
Wed 02:12:07 AM 18.2940 -66.2150 165° South 503 579 33,000  Level FlightAware ADS-B
Wed 02:12:47 AM 18.2050 -66.1890 164° South 503 579 33,000  Level FlightAware ADS-B
Wed 02:13:27 AM 18.1160 -66.1630 164° South 503 579 33,000  Level FlightAware ADS-B
Wed 02:14:12 AM 18.0160 -66.1330 164° South 503 579 33,000  Level FlightAware ADS-B
Wed 02:14:52 AM 17.9260 -66.1070 165° South 503 579 33,000  Level FlightAware ADS-B
Wed 02:15:37 AM 17.8220 -66.0770 165° South 503 579 33,000  Level FlightAware ADS-B
Wed 02:16:17 AM 17.7330 -66.0510 164° South 505 581 33,000  Level FlightAware ADS-B
Wed 02:16:57 AM 17.6430 -66.0250 165° South 506 582 33,000  Level FlightAware ADS-B
Wed 02:17:42 AM 17.5430 -65.9960 165° South 505 581 33,000  Level FlightAware ADS-B
Wed 02:18:32 AM 17.4340 -65.9640 164° South 505 581 33,000  Level FlightAware ADS-B
Wed 02:19:12 AM 17.3580 -65.9410 164° South 505 581 33,000  Level FlightAware ADS-B
Wed 02:20:02 AM 17.2630 -65.9120 164° South 505 581 33,000  Level FlightAware ADS-B
Wed 02:20:42 AM 17.1860 -65.8890 164° South 505 581 33,000  Level FlightAware ADS-B
Wed 02:21:22 AM 17.1100 -65.8660 164° South 505 581 33,000  Level FlightAware ADS-B
Wed 02:22:02 AM 17.0340 -65.8430 164° South 505 581 33,000  Level FlightAware ADS-B
Wed 02:22:42 AM 16.9570 -65.8200 164° South 505 581 33,000  Level FlightAware ADS-B
Wed 02:23:32 AM 16.8620 -65.7920 164° South 505 581 33,000  Level FlightAware ADS-B
Wed 02:24:12 AM 16.7850 -65.7690 164° South 505 581 33,000  Level FlightAware ADS-B
Wed 02:24:52 AM 16.7090 -65.7460 164° South 505 581 33,000  Level FlightAware ADS-B
Wed 02:25:32 AM 16.6330 -65.7230 164° South 505 581 33,000  Level FlightAware ADS-B
Wed 02:26:12 AM 16.5560 -65.7000 164° South 505 581 33,000  Level FlightAware ADS-B
Wed 02:27:02 AM 16.4610 -65.6720 164° South 505 581 33,000  Level FlightAware ADS-B
Wed 02:27:42 AM 16.3850 -65.6490 164° South 505 581 33,000  Level FlightAware ADS-B
Wed 02:28:07 AM 16.1500 -65.5833 164° South 510 587 33,000  Level San Juan Center
Wed 02:29:08 AM 16.0167 -65.5333 160° South 500 575 33,000  Level San Juan Center
Wed 02:32:00 AM 15.7777 -65.4975 172° South  Level FlightAware Approximate
Wed 02:39:00 AM 14.9151 -65.2189 160° South  Level FlightAware Approximate
Wed 02:40:00 AM 14.7938 -65.1725 160° South  Level FlightAware Approximate
Wed 02:40:02 AM 14.5350 -65.1250 160° South 505 581 33,000  Level FlightAware ADS-B
Wed 02:40:42 AM 14.4590 -65.1000 162° South 505 581 33,000  Level FlightAware ADS-B
Wed 02:41:27 AM 14.3440 -65.0620 162° South 503 579 33,000  Level FlightAware ADS-B
Wed 02:43:47 AM 14.0310 -64.9590 162° South 503 579 33,000  Level FlightAware ADS-B
Wed 02:44:27 AM 13.9310 -64.9320 165° South 502 578 33,000  Level FlightAware ADS-B
Wed 02:45:27 AM 13.7990 -64.8940 164° South 506 582 33,000  Level FlightAware ADS-B
Wed 02:46:07 AM 13.7090 -64.8640 162° South 507 583 33,000  Level FlightAware ADS-B
Wed 02:46:52 AM 13.6050 -64.8300 162° South 506 582 33,000  Level FlightAware ADS-B
Wed 02:47:27 AM 13.5330 -64.8080 163° South 506 582 33,000  Level FlightAware ADS-B
Wed 02:48:27 AM 13.3880 -64.7620 163° South 501 577 33,000  Level FlightAware ADS-B
Wed 02:49:07 AM 13.3150 -64.7380 162° South 500 575 33,000  Level FlightAware ADS-B
Wed 02:49:52 AM 13.2030 -64.7030 163° South 496 571 33,000  Level FlightAware ADS-B
Wed 02:50:47 AM 13.0960 -64.6690 163° South 496 571 33,000  Level FlightAware ADS-B
Wed 02:51:27 AM 13.0000 -64.6390 163° South 499 574 33,000  Level FlightAware ADS-B
Wed 02:52:22 AM 12.8760 -64.5980 162° South 500 575 33,000  Level FlightAware ADS-B
Wed 02:53:07 AM 12.7690 -64.5630 162° South 504 580 33,000  Level FlightAware ADS-B
Wed 02:53:47 AM 12.6940 -64.5380 162° South 504 580 33,000  Level FlightAware ADS-B
Wed 02:54:32 AM 12.5930 -64.5050 162° South 501 577 33,000  Level FlightAware ADS-B
Wed 02:55:12 AM 12.4920 -64.4720 162° South 502 578 33,000  Level FlightAware ADS-B
Wed 02:55:57 AM 12.4030 -64.4430 162° South 502 578 33,000  Level FlightAware ADS-B
Wed 02:56:37 AM 12.3280 -64.4180 162° South 502 578 33,000  Level FlightAware ADS-B
Wed 02:57:17 AM 12.2530 -64.3930 162° South 502 578 33,000  Level FlightAware ADS-B
Wed 02:57:27 AM 12.4920 -64.4720 342° North 33,000  Level FlightAware ADS-B
Wed 02:58:47 AM 12.1740 -64.3700 163° South 501 577 33,000  Level FlightAware ADS-B
Wed 02:59:22 AM 12.1010 -64.3460 162° South 501 577 33,000  Level FlightAware ADS-B
Wed 03:00:07 AM 12.0160 -64.3180 162° South 501 577 33,000  Level FlightAware ADS-B
Wed 03:00:47 AM 11.9410 -64.2930 162° South 501 577 33,000  Level FlightAware ADS-B
Wed 03:01:47 AM 11.6390 -64.2010 163° South 500 575 33,000  Level FlightAware ADS-B
Wed 03:02:27 AM 11.5640 -64.1760 162° South 500 575 33,000  Level FlightAware ADS-B
Wed 03:03:07 AM 11.4900 -64.1510 162° South 500 575 33,000  Level FlightAware ADS-B
Wed 03:03:47 AM 11.4150 -64.1260 162° South 500 575 33,000  Level FlightAware ADS-B
Wed 03:04:37 AM 11.3210 -64.0950 162° South 500 575 33,000  Level FlightAware ADS-B
Wed 03:05:17 AM 11.2460 -64.0700 162° South 500 575 33,000  Level FlightAware ADS-B
Wed 03:05:57 AM 11.1720 -64.0460 162° South 500 575 33,000  Level FlightAware ADS-B
Wed 03:06:37 AM 11.0970 -64.0210 162° South 500 575 33,000  Level FlightAware ADS-B
Wed 03:07:17 AM 11.0220 -63.9960 162° South 500 575 33,000  Level FlightAware ADS-B
Wed 03:08:07 AM 10.9290 -63.9650 162° South 500 575 33,000  Level FlightAware ADS-B
Wed 03:08:47 AM 10.8540 -63.9400 162° South 500 575 33,000  Level FlightAware ADS-B
Wed 03:09:27 AM 10.7790 -63.9160 163° South 500 575 33,000  Level FlightAware ADS-B
Wed 03:10:07 AM 10.7040 -63.8910 162° South 500 575 33,000  Level FlightAware ADS-B
Wed 03:10:47 AM 10.6290 -63.8660 162° South 500 575 33,000 Level FlightAware ADS-B
Wed 03:13:00 AM 10.3722 -63.7364 154° Southeast  Level Estimated
Wed 03:14:00 AM 10.2563 -63.6779 154° Southeast  Level Estimated
Wed 03:15:00 AM 10.1404 -63.6195 154° Southeast  Level Estimated
Wed 03:16:00 AM 10.0246 -63.5612 154° Southeast  Level Estimated
Wed 03:17:00 AM 9.9087 -63.5029 154° Southeast  Level Estimated
Wed 03:18:00 AM 9.7927 -63.4447 154° Southeast  Level Estimated
Wed 03:19:00 AM 9.6770 -63.3866 154° Southeast  Level Estimated
Wed 03:20:00 AM 9.5613 -63.3285 154° Southeast  Level Estimated
Wed 03:21:00 AM 9.4456 -63.2705 154° Southeast  Level Estimated
Wed 03:22:00 AM 9.3298 -63.2125 154° Southeast  Level Estimated
Wed 03:23:00 AM 9.2141 -63.1545 154° Southeast  Level Estimated
Wed 03:24:00 AM 9.0983 -63.0966 154° Southeast  Level Estimated
Wed 03:25:00 AM 8.9826 -63.0388 154° Southeast  Level Estimated
Wed 03:26:00 AM 8.8668 -62.9809 154° Southeast  Level Estimated
Wed 03:27:00 AM 8.7510 -62.9231 154° Southeast  Level Estimated
Wed 03:28:00 AM 8.6352 -62.8654 154° Southeast  Level Estimated
Wed 03:29:00 AM 8.5194 -62.8077 154° Southeast  Level Estimated
Wed 03:30:00 AM 8.4038 -62.7501 154° Southeast  Level Estimated
Wed 03:31:00 AM 8.2882 -62.6925 154° Southeast  Level Estimated
Wed 03:32:00 AM 8.1726 -62.6350 154° Southeast  Level Estimated
Wed 03:33:00 AM 8.0570 -62.5775 154° Southeast  Level Estimated
Wed 03:34:00 AM 7.9414 -62.5201 154° Southeast  Level Estimated
Wed 03:35:00 AM 7.8258 -62.4626 154° Southeast  Level Estimated
Wed 03:36:00 AM 7.7101 -62.4053 154° Southeast  Level Estimated
Wed 03:37:00 AM 7.5945 -62.3479 154° Southeast  Level Estimated
Wed 03:38:00 AM 7.4788 -62.2906 154° Southeast  Level Estimated
Wed 03:39:00 AM 7.3632 -62.2333 154° Southeast  Level Estimated
Wed 03:40:00 AM 7.2475 -62.1760 154° Southeast  Level Estimated
Wed 03:41:00 AM 7.1318 -62.1188 154° Southeast  Level Estimated
Wed 03:42:00 AM 7.0161 -62.0616 154° Southeast  Level Estimated
Wed 03:43:00 AM 6.9004 -62.0044 154° Southeast  Level Estimated
Wed 03:44:00 AM 6.7847 -61.9472 154° Southeast  Level Estimated
Wed 03:45:00 AM 6.6690 -61.8901 154° Southeast  Level Estimated
Wed 03:46:00 AM 6.5533 -61.8330 154° Southeast  Level Estimated
Wed 03:47:00 AM 6.4376 -61.7760 154° Southeast  Level Estimated
Wed 03:48:00 AM 6.3218 -61.7189 154° Southeast  Level Estimated
Wed 03:49:00 AM 6.2061 -61.6619 154° Southeast  Level Estimated
Wed 03:50:00 AM 6.0904 -61.6049 154° Southeast  Level Estimated
Wed 03:51:00 AM 5.9746 -61.5479 154° Southeast  Level Estimated
Wed 03:52:00 AM 5.8589 -61.4910 154° Southeast  Level Estimated
Wed 03:53:00 AM 5.7431 -61.4341 154° Southeast  Level Estimated
Wed 03:54:00 AM 5.6274 -61.3772 154° Southeast  Level Estimated
Wed 03:55:00 AM 5.5116 -61.3203 154° Southeast  Level Estimated
Wed 03:56:00 AM 5.3958 -61.2635 154° Southeast  Level Estimated
Wed 03:57:00 AM 5.2800 -61.2066 154° Southeast  Level Estimated
Wed 03:58:00 AM 5.1643 -61.1498 154° Southeast  Level Estimated
Wed 03:59:00 AM 5.0485 -61.0930 154° Southeast  Level Estimated
Wed 04:00:00 AM 4.9327 -61.0363 154° Southeast  Level Estimated
Wed 04:01:00 AM 4.8169 -60.9795 154° Southeast  Level Estimated
Wed 04:02:00 AM 4.7011 -60.9228 154° Southeast  Level Estimated
Wed 04:03:00 AM 4.5853 -60.8661 154° Southeast  Level Estimated
Wed 04:04:00 AM 4.4703 -60.8098 154° Southeast  Level Estimated
Wed 04:05:00 AM 4.3554 -60.7535 154° Southeast  Level Estimated
Wed 04:06:00 AM 4.2404 -60.6973 154° Southeast  Level Estimated
Wed 04:07:00 AM 4.1254 -60.6410 154° Southeast  Level Estimated
Wed 04:08:00 AM 4.0104 -60.5848 154° Southeast  Level Estimated
Wed 04:09:00 AM 3.8954 -60.5286 154° Southeast  Level Estimated
Wed 04:10:00 AM 3.7805 -60.4725 154° Southeast  Level Estimated
Wed 04:11:00 AM 3.6655 -60.4163 154° Southeast  Level Estimated
Wed 04:12:00 AM 3.5505 -60.3602 154° Southeast  Level Estimated
Wed 04:13:00 AM 3.4355 -60.3040 154° Southeast  Level Estimated
Wed 04:14:00 AM 3.3205 -60.2479 154° Southeast  Level Estimated
Wed 04:15:00 AM 3.2055 -60.1918 154° Southeast  Level Estimated
Wed 04:16:00 AM 3.0905 -60.1357 154° Southeast  Level Estimated
Wed 04:17:00 AM 2.9755 -60.0796 154° Southeast  Level Estimated
Wed 04:18:00 AM 2.8604 -60.0235 154° Southeast  Level Estimated
Wed 04:19:00 AM 2.7454 -59.9675 154° Southeast  Level Estimated
Wed 04:20:00 AM 2.6304 -59.9114 154° Southeast  Level Estimated
Wed 04:21:00 AM 2.5154 -59.8554 154° Southeast  Level Estimated
Wed 04:22:00 AM 2.4004 -59.7994 154° Southeast  Level Estimated
Wed 04:23:00 AM 2.2853 -59.7434 154° Southeast  Level Estimated
Wed 04:24:00 AM 2.1703 -59.6873 154° Southeast  Level Estimated
Wed 04:25:00 AM 2.0553 -59.6313 154° Southeast  Level Estimated
Wed 04:26:00 AM 1.9402 -59.5754 154° Southeast  Level Estimated
Wed 04:27:00 AM 1.8252 -59.5194 154° Southeast  Level Estimated
Wed 04:28:00 AM 1.7102 -59.4634 154° Southeast  Level Estimated
Wed 04:29:00 AM 1.5951 -59.4074 154° Southeast  Level Estimated
Wed 04:30:00 AM 1.4801 -59.3514 154° Southeast  Level Estimated
Wed 04:31:00 AM 1.3650 -59.2955 154° Southeast  Level Estimated
Wed 04:32:00 AM 1.2500 -59.2395 154° Southeast  Level Estimated
Wed 04:33:00 AM 1.1350 -59.1836 154° Southeast  Level Estimated
Wed 04:34:00 AM 1.0199 -59.1276 154° Southeast  Level Estimated
Wed 04:35:00 AM 0.9049 -59.0717 154° Southeast  Level Estimated
Wed 04:36:00 AM 0.7898 -59.0157 154° Southeast  Level Estimated
Wed 04:37:00 AM 0.6748 -58.9598 154° Southeast  Level Estimated
Wed 04:38:00 AM 0.5597 -58.9039 154° Southeast  Level Estimated
Wed 04:39:00 AM 0.4447 -58.8479 154° Southeast  Level Estimated
Wed 04:40:00 AM 0.3296 -58.7920 154° Southeast  Level Estimated
Wed 04:41:00 AM 0.2146 -58.7361 154° Southeast  Level Estimated
Wed 04:42:00 AM 0.0995 -58.6801 154° Southeast  Level Estimated
Wed 04:43:00 AM -0.0155 -58.6242 154° Southeast  Level Estimated
Wed 04:44:00 AM -0.1306 -58.5683 154° Southeast  Level Estimated
Wed 04:45:00 AM -0.2456 -58.5124 154° Southeast  Level Estimated
Wed 04:46:00 AM -0.3607 -58.4564 154° Southeast  Level Estimated
Wed 04:47:00 AM -0.4757 -58.4005 154° Southeast  Level Estimated
Wed 04:48:00 AM -0.5908 -58.3446 154° Southeast  Level Estimated
Wed 04:49:00 AM -0.7058 -58.2886 154° Southeast  Level Estimated
Wed 04:50:00 AM -0.8209 -58.2327 154° Southeast  Level Estimated
Wed 04:51:00 AM -0.9359 -58.1768 154° Southeast  Level Estimated
Wed 04:52:00 AM -1.0510 -58.1208 154° Southeast  Level Estimated
Wed 04:53:00 AM -1.1660 -58.0649 154° Southeast  Level Estimated
Wed 04:54:00 AM -1.2810 -58.0089 154° Southeast  Level Estimated
Wed 04:55:00 AM -1.3961 -57.9530 154° Southeast  Level Estimated
Wed 04:56:00 AM -1.5111 -57.8970 154° Southeast  Level Estimated
Wed 04:57:00 AM -1.6262 -57.8410 154° Southeast  Level Estimated
Wed 04:58:00 AM -1.7412 -57.7851 154° Southeast  Level Estimated
Wed 04:59:00 AM -1.8562 -57.7291 154° Southeast  Level Estimated
Wed 05:00:00 AM -1.9713 -57.6731 154° Southeast  Level Estimated
Wed 05:01:00 AM -2.0863 -57.6171 154° Southeast  Level Estimated
Wed 05:02:00 AM -2.2013 -57.5611 154° Southeast  Level Estimated
Wed 05:03:00 AM -2.3163 -57.5051 154° Southeast  Level Estimated
Wed 05:04:00 AM -2.4314 -57.4491 154° Southeast  Level Estimated
Wed 05:05:00 AM -2.5464 -57.3930 154° Southeast  Level Estimated
Wed 05:06:00 AM -2.6614 -57.3370 154° Southeast  Level Estimated
Wed 05:07:00 AM -2.7764 -57.2809 154° Southeast  Level Estimated
Wed 05:08:00 AM -2.8915 -57.2249 154° Southeast  Level Estimated
Wed 05:09:00 AM -3.0065 -57.1688 154° Southeast  Level Estimated
Wed 05:10:00 AM -3.1215 -57.1127 154° Southeast  Level Estimated
Wed 05:11:00 AM -3.2365 -57.0566 154° Southeast  Level Estimated
Wed 05:12:00 AM -3.3515 -57.0005 154° Southeast  Level Estimated
Wed 05:13:00 AM -3.4665 -56.9444 154° Southeast  Level Estimated
Wed 05:14:00 AM -3.5815 -56.8882 154° Southeast  Level Estimated
Wed 05:15:00 AM -3.6965 -56.8321 154° Southeast  Level Estimated
Wed 05:16:00 AM -3.8115 -56.7759 154° Southeast  Level Estimated
Wed 05:17:00 AM -3.9265 -56.7197 154° Southeast  Level Estimated
Wed 05:18:00 AM -4.0414 -56.6636 154° Southeast  Level Estimated
Wed 05:19:00 AM -4.1564 -56.6073 154° Southeast  Level Estimated
Wed 05:20:00 AM -4.2714 -56.5511 154° Southeast  Level Estimated
Wed 05:21:00 AM -4.3864 -56.4949 154° Southeast  Level Estimated
Wed 05:22:00 AM -4.5013 -56.4386 154° Southeast  Level Estimated
Wed 05:23:00 AM -4.6163 -56.3823 154° Southeast  Level Estimated
Wed 05:24:00 AM -4.7312 -56.3260 154° Southeast  Level Estimated
Wed 05:25:00 AM -4.8462 -56.2697 154° Southeast  Level Estimated
Wed 05:26:00 AM -4.9612 -56.2134 154° Southeast  Level Estimated
Wed 05:27:00 AM -5.0759 -56.1571 154° Southeast  Level Estimated
Wed 05:28:00 AM -5.1906 -56.1008 154° Southeast  Level Estimated
Wed 05:29:00 AM -5.3053 -56.0446 154° Southeast  Level Estimated
Wed 05:30:00 AM -5.4201 -55.9882 154° Southeast  Level Estimated
Wed 05:31:00 AM -5.5348 -55.9319 154° Southeast  Level Estimated
Wed 05:32:00 AM -5.6495 -55.8755 154° Southeast  Level Estimated
Wed 05:33:00 AM -5.7642 -55.8191 154° Southeast  Level Estimated
Wed 05:34:00 AM -5.8789 -55.7627 154° Southeast  Level Estimated
Wed 05:35:00 AM -5.9936 -55.7063 154° Southeast  Level Estimated
Wed 05:36:00 AM -6.1083 -55.6499 154° Southeast  Level Estimated
Wed 05:37:00 AM -6.2229 -55.5934 154° Southeast  Level Estimated
Wed 05:38:00 AM -6.3376 -55.5369 154° Southeast  Level Estimated
Wed 05:39:00 AM -6.4523 -55.4804 154° Southeast  Level Estimated
Wed 05:40:00 AM -6.5669 -55.4238 154° Southeast  Level Estimated
Wed 05:41:00 AM -6.6816 -55.3672 154° Southeast  Level Estimated
Wed 05:42:00 AM -6.7962 -55.3106 154° Southeast  Level Estimated
Wed 05:43:00 AM -6.9109 -55.2540 154° Southeast  Level Estimated
Wed 05:44:00 AM -7.0255 -55.1973 154° Southeast  Level Estimated
Wed 05:45:00 AM -7.1401 -55.1407 154° Southeast  Level Estimated
Wed 05:46:00 AM -7.2548 -55.0839 154° Southeast  Level Estimated
Wed 05:47:00 AM -7.3694 -55.0272 154° Southeast  Level Estimated
Wed 05:48:00 AM -7.4840 -54.9704 154° Southeast  Level Estimated
Wed 05:49:00 AM -7.5986 -54.9136 154° Southeast  Level Estimated
Wed 05:50:00 AM -7.7132 -54.8568 154° Southeast  Level Estimated
Wed 05:51:00 AM -7.8278 -54.7999 154° Southeast  Level Estimated
Wed 05:52:00 AM -7.9423 -54.7430 154° Southeast  Level Estimated
Wed 05:53:00 AM -8.0569 -54.6861 154° Southeast  Level Estimated
Wed 05:54:00 AM -8.1715 -54.6292 154° Southeast  Level Estimated
Wed 05:55:00 AM -8.2860 -54.5722 154° Southeast  Level Estimated
Wed 05:56:00 AM -8.4006 -54.5151 154° Southeast  Level Estimated
Wed 05:57:00 AM -8.5151 -54.4581 154° Southeast  Level Estimated
Wed 05:58:00 AM -8.6296 -54.4010 154° Southeast  Level Estimated
Wed 05:59:00 AM -8.7442 -54.3439 154° Southeast  Level Estimated
Wed 06:00:00 AM -8.8587 -54.2867 154° Southeast  Level Estimated
Wed 06:01:00 AM -8.9732 -54.2295 154° Southeast  Level Estimated
Wed 06:02:00 AM -9.0877 -54.1723 154° Southeast  Level Estimated
Wed 06:03:00 AM -9.2022 -54.1150 154° Southeast  Level Estimated
Wed 06:04:00 AM -9.3166 -54.0577 154° Southeast  Level Estimated
Wed 06:05:00 AM -9.4311 -54.0004 154° Southeast  Level Estimated
Wed 06:06:00 AM -9.5456 -53.9430 154° Southeast  Level Estimated
Wed 06:07:00 AM -9.6600 -53.8856 154° Southeast  Level Estimated
Wed 06:08:00 AM -9.7745 -53.8281 154° Southeast  Level Estimated
Wed 06:09:00 AM -9.8889 -53.7706 154° Southeast  Level Estimated
Wed 06:10:00 AM -10.0031 -53.7132 154° Southeast  Level Estimated
Wed 06:11:00 AM -10.1173 -53.6557 154° Southeast  Level Estimated
Wed 06:12:00 AM -10.2315 -53.5981 154° Southeast  Level Estimated
Wed 06:13:00 AM -10.3457 -53.5406 154° Southeast  Level Estimated
Wed 06:14:00 AM -10.4598 -53.4830 154° Southeast  Level Estimated
Wed 06:15:00 AM -10.5740 -53.4254 154° Southeast  Level Estimated
Wed 06:16:00 AM -10.6881 -53.3677 154° Southeast  Level Estimated
Wed 06:17:00 AM -10.8023 -53.3099 154° Southeast  Level Estimated
Wed 06:18:00 AM -10.9164 -53.2522 154° Southeast  Level Estimated
Wed 06:19:00 AM -11.0305 -53.1943 154° Southeast  Level Estimated
Wed 06:20:00 AM -11.1446 -53.1365 154° Southeast  Level Estimated
Wed 06:21:00 AM -11.2587 -53.0786 154° Southeast  Level Estimated
Wed 06:22:00 AM -11.3728 -53.0206 154° Southeast  Level Estimated
Wed 06:23:00 AM -11.4869 -52.9626 154° Southeast  Level Estimated
Wed 06:24:00 AM -11.6010 -52.9046 154° Southeast  Level Estimated
Wed 06:25:00 AM -11.7150 -52.8465 153° Southeast  Level Estimated
Wed 06:26:00 AM -11.8290 -52.7883 153° Southeast  Level Estimated
Wed 06:27:00 AM -11.9431 -52.7301 153° Southeast  Level Estimated
Wed 06:28:00 AM -12.0571 -52.6719 153° Southeast  Level Estimated
Wed 06:29:00 AM -12.1711 -52.6136 153° Southeast  Level Estimated
Wed 06:30:00 AM -12.2851 -52.5553 153° Southeast  Level Estimated
Wed 06:31:00 AM -12.3991 -52.4969 153° Southeast  Level Estimated
Wed 06:32:00 AM -12.5130 -52.4384 153° Southeast  Level Estimated
Wed 06:33:00 AM -12.6270 -52.3800 153° Southeast  Level Estimated
Wed 06:34:00 AM -12.7409 -52.3214 153° Southeast  Level Estimated
Wed 06:35:00 AM -12.8548 -52.2628 153° Southeast  Level Estimated
Wed 06:36:00 AM -12.9688 -52.2042 153° Southeast  Level Estimated
Wed 06:37:00 AM -13.0827 -52.1455 153° Southeast  Level Estimated
Wed 06:38:00 AM -13.1966 -52.0867 153° Southeast  Level Estimated
Wed 06:39:00 AM -13.3104 -52.0279 153° Southeast  Level Estimated
Wed 06:40:00 AM -13.4243 -51.9690 153° Southeast  Level Estimated
Wed 06:41:00 AM -13.5381 -51.9101 153° Southeast  Level Estimated
Wed 06:42:00 AM -13.6520 -51.8511 153° Southeast  Level Estimated
Wed 06:43:00 AM -13.7658 -51.7921 153° Southeast  Level Estimated
Wed 06:44:00 AM -13.8796 -51.7330 153° Southeast  Level Estimated
Wed 06:45:00 AM -13.9934 -51.6738 153° Southeast  Level Estimated
Wed 06:46:00 AM -14.1072 -51.6146 153° Southeast  Level Estimated
Wed 06:47:00 AM -14.2209 -51.5554 153° Southeast  Level Estimated
Wed 06:48:00 AM -14.3347 -51.4960 153° Southeast  Level Estimated
Wed 06:49:00 AM -14.4484 -51.4366 153° Southeast  Level Estimated
Wed 06:50:00 AM -14.5621 -51.3772 153° Southeast  Level Estimated
Wed 06:51:00 AM -14.6758 -51.3177 153° Southeast  Level Estimated
Wed 06:52:00 AM -14.7895 -51.2581 153° Southeast  Level Estimated
Wed 06:53:00 AM -14.9032 -51.1985 153° Southeast  Level Estimated
Wed 06:54:00 AM -15.0168 -51.1388 153° Southeast  Level Estimated
Wed 06:55:00 AM -15.1305 -51.0790 153° Southeast  Level Estimated
Wed 06:56:00 AM -15.2441 -51.0192 153° Southeast  Level Estimated
Wed 06:57:00 AM -15.3577 -50.9593 153° Southeast  Level Estimated
Wed 06:58:00 AM -15.4713 -50.8993 153° Southeast  Level Estimated
Wed 06:59:00 AM -15.5849 -50.8393 153° Southeast  Level Estimated
Wed 07:00:00 AM -15.6985 -50.7792 153° Southeast  Level Estimated
Wed 07:01:00 AM -15.8120 -50.7191 153° Southeast  Level Estimated
Wed 07:02:00 AM -15.9255 -50.6588 153° Southeast  Level Estimated
Wed 07:03:00 AM -16.0390 -50.5985 153° Southeast  Level Estimated
Wed 07:04:00 AM -16.1525 -50.5382 153° Southeast  Level Estimated
Wed 07:05:00 AM -16.2660 -50.4778 153° Southeast  Level Estimated
Wed 07:06:00 AM -16.3795 -50.4173 153° Southeast  Level Estimated
Wed 07:07:00 AM -16.4929 -50.3567 153° Southeast  Level Estimated
Wed 07:08:00 AM -16.6063 -50.2961 153° Southeast  Level Estimated
Wed 07:09:00 AM -16.7198 -50.2353 153° Southeast  Level Estimated
Wed 07:10:00 AM -16.8332 -50.1745 153° Southeast  Level Estimated
Wed 07:10:12 AM -19.1490 -49.4140 153° Southeast 533 613 35,000  Level FlightAware ADS-B
Wed 07:11:00 AM -16.9465 -50.1137 153° Southeast  Level Estimated
Wed 07:11:12 AM -19.2780 -49.3440 153° Southeast 534 615 35,000  Level FlightAware ADS-B
Wed 07:11:47 AM -19.3570 -49.3000 152° Southeast 534 615 35,000  Level FlightAware ADS-B
Wed 07:12:32 AM -19.4580 -49.2440 152° Southeast 533 613 35,000  Level FlightAware ADS-B
Wed 07:13:17 AM -19.5550 -49.1900 152° Southeast 534 615 35,000  Level FlightAware ADS-B
Wed 07:13:57 AM -19.6420 -49.1420 153° Southeast 533 613 35,000  Level FlightAware ADS-B
Wed 07:14:37 AM -19.7290 -49.0940 153° Southeast 532 612 35,000  Level FlightAware ADS-B
Wed 07:15:12 AM -19.8000 -49.0540 152° Southeast 530 610 35,000  Level FlightAware ADS-B
Wed 07:16:07 AM -19.9200 -48.9880 153° Southeast 527 606 35,000  Level FlightAware ADS-B
Wed 07:16:47 AM -20.0110 -48.9370 152° Southeast 526 605 35,000  Level FlightAware ADS-B
Wed 07:17:27 AM -20.0980 -48.8880 152° Southeast 524 603 35,000  Level FlightAware ADS-B
Wed 07:18:12 AM -20.1960 -48.8340 153° Southeast 523 602 35,000  Level FlightAware ADS-B
Wed 07:18:52 AM -20.2810 -48.7860 152° Southeast 522 601 35,000  Level FlightAware ADS-B
Wed 07:19:32 AM -20.3670 -48.7380 152° Southeast 523 602 35,000  Level FlightAware ADS-B
Wed 07:20:17 AM -20.4610 -48.6890 154° Southeast 522 601 35,000  Level FlightAware ADS-B
Wed 07:21:02 AM -20.5610 -48.6360 154° Southeast 521 600 35,000  Level FlightAware ADS-B
Wed 07:21:42 AM -20.6490 -48.5890 153° Southeast 519 597 35,000  Level FlightAware ADS-B
Wed 07:22:22 AM -20.7280 -48.5470 154° Southeast 517 595 35,000  Level FlightAware ADS-B
Wed 07:22:57 AM -20.8080 -48.5040 153° Southeast 516 594 35,000  Level FlightAware ADS-B
Wed 07:23:32 AM -20.8870 -48.4620 154° Southeast 516 594 35,000  Level FlightAware ADS-B
Wed 07:24:17 AM -20.9800 -48.4120 153° Southeast 517 595 35,000  Level FlightAware ADS-B
Wed 07:24:57 AM -21.0650 -48.3650 153° Southeast 518 596 35,000  Level FlightAware ADS-B
Wed 07:25:37 AM -21.1420 -48.3030 143° Southeast 521 600 35,000  Level FlightAware ADS-B
Wed 07:26:22 AM -21.2240 -48.2260 139° Southeast 521 600 35,000  Level FlightAware ADS-B
Wed 07:27:02 AM -21.3000 -48.1600 141° Southeast 518 596 35,000 -300 Level FlightAware ADS-B
Wed 07:27:42 AM -21.3750 -48.0970 142° Southeast 503 579 34,600 -847 Descending FlightAware ADS-B
Wed 07:28:27 AM -21.4540 -48.0330 143° Southeast 488 562 33,800 -1,129 Descending FlightAware ADS-B
Wed 07:29:07 AM -21.5260 -47.9740 143° Southeast 478 550 33,000 -1,200 Descending FlightAware ADS-B
Wed 07:29:52 AM -21.6060 -47.9080 143° Southeast 466 536 32,100 -1,271 Descending FlightAware ADS-B
Wed 07:30:32 AM -21.6740 -47.8520 143° Southeast 457 526 31,200 -1,200 Descending FlightAware ADS-B
Wed 07:31:17 AM -21.7470 -47.7920 143° Southeast 448 516 30,400 -1,200 Descending FlightAware ADS-B
Wed 07:31:57 AM -21.8130 -47.7370 142° Southeast 443 510 29,500 -1,350 Descending FlightAware ADS-B
Wed 07:32:37 AM -21.8780 -47.6830 142° Southeast 439 505 28,600 -1,271 Descending FlightAware ADS-B
Wed 07:33:22 AM -21.9500 -47.6230 142° Southeast 434 499 27,700 -1,200 Descending FlightAware ADS-B
Wed 07:34:02 AM -22.0110 -47.5720 142° Southeast 429 494 26,900 -1,059 Descending FlightAware ADS-B
Wed 07:34:47 AM -22.0820 -47.5130 142° Southeast 418 481 26,200 -988 Descending FlightAware ADS-B
Wed 07:35:27 AM -22.1420 -47.4630 142° Southeast 411 473 25,500 -975 Descending FlightAware ADS-B
Wed 07:36:07 AM -22.2010 -47.4130 142° Southeast 404 465 24,900 -960 Descending FlightAware ADS-B
Wed 07:36:42 AM -22.2470 -47.3750 143° Southeast 401 461 24,300 -1,059 Descending FlightAware ADS-B
Wed 07:37:32 AM -22.3220 -47.3120 142° Southeast 393 452 23,400 -1,011 Descending FlightAware ADS-B
Wed 07:38:17 AM -22.3880 -47.2570 142° Southeast 389 448 22,700 -847 Descending FlightAware ADS-B
Wed 07:38:57 AM -22.4450 -47.2090 142° Southeast 388 447 22,200 -975 Descending FlightAware ADS-B
Wed 07:39:37 AM -22.5010 -47.1610 142° Southeast 373 429 21,400 -1,412 Descending FlightAware ADS-B
Wed 07:40:22 AM -22.5640 -47.1100 143° Southeast 373 429 20,200 -1,553 Descending FlightAware ADS-B
Wed 07:41:02 AM -22.6250 -47.0770 153° Southeast 367 422 19,200 -1,553 Descending FlightAware ADS-B
Wed 07:41:47 AM -22.6940 -47.0480 159° South 362 417 18,000 -1,553 Descending FlightAware ADS-B
Wed 07:42:27 AM -22.7560 -47.0230 160° South 350 403 17,000 -1,575 Descending FlightAware ADS-B
Wed 07:43:07 AM -22.8200 -46.9960 159° South 344 396 15,900 -1,553 Descending FlightAware ADS-B
Wed 07:43:52 AM -22.8860 -46.9680 159° South 346 398 14,800 -1,624 Descending FlightAware ADS-B
Wed 07:44:32 AM -22.9470 -46.9420 159° South 327 376 13,600 -1,835 Descending FlightAware ADS-B
Wed 07:45:17 AM -23.0090 -46.9160 159° South 312 359 12,200 -1,553 Descending FlightAware ADS-B
Wed 07:45:57 AM -23.0600 -46.8950 159° South 278 320 11,400 -1,200 Descending FlightAware ADS-B
Wed 07:46:37 AM -23.1090 -46.8740 158° South 278 320 10,600 -1,200 Descending FlightAware ADS-B
Wed 07:47:07 AM -23.1450 -46.8590 159° South 275 316 10,000 -1,200 Descending FlightAware ADS-B
Wed 07:47:37 AM -23.1800 -46.8440 158° South 263 303 9,400 -1,200 Descending FlightAware ADS-B
Wed 07:47:47 AM -23.1920 -46.8390 159° South 262 302 9,200 -1,200 Descending FlightAware ADS-B
Wed 07:48:17 AM -23.2270 -46.8250 160° South 258 297 8,600 -1,067 Descending FlightAware ADS-B
Wed 07:48:32 AM -23.2420 -46.8180 157° South 245 282 8,400 -900 Descending FlightAware ADS-B
Wed 07:48:57 AM -23.2690 -46.8060 158° South 230 265 8,000 -655 Descending FlightAware ADS-B
Wed 07:49:27 AM -23.2990 -46.7940 160° South 209 241 7,800 -400 Descending FlightAware ADS-B
Wed 07:49:57 AM -23.3260 -46.7830 159° South 212 244 7,600 -450 Descending FlightAware ADS-B
Wed 07:50:07 AM -23.3350 -46.7790 158° South 211 243 7,500 -450 Descending FlightAware ADS-B
Wed 07:50:37 AM -23.3630 -46.7670 159° South 211 243 7,300 -600 Descending FlightAware ADS-B
Wed 07:51:07 AM -23.3870 -46.7490 145° Southeast 213 245 6,900 -1,091 Descending FlightAware ADS-B
Wed 07:51:32 AM -23.4060 -46.7320 141° Southeast 202 232 6,300 -1,309 Descending FlightAware ADS-B
Wed 07:52:02 AM -23.4270 -46.7120 139° Southeast 210 242 5,700 -1,200 Descending FlightAware ADS-B
Wed 07:52:27 AM -23.4450 -46.6940 137° Southeast 199 229 5,200 -900 Descending FlightAware ADS-B
Wed 07:52:42 AM -23.4520 -46.6810 120° Southeast 191 220 5,100 -600 Descending FlightAware ADS-B
Wed 07:52:57 AM -23.4580 -46.6680 117° Southeast 187 215 4,900 -667 Descending FlightAware ADS-B
Wed 07:53:27 AM -23.4690 -46.6440 117° Southeast 174 200 4,600 -545 Descending FlightAware ADS-B
Wed 07:53:52 AM -23.4750 -46.6230 107° East 169 194 4,400 -360 Descending FlightAware ADS-B
Wed 07:54:17 AM -23.4700 -46.6030 75° East 169 194 4,300 -450 Descending FlightAware ADS-B
Wed 07:54:32 AM -23.4670 -46.5910 75° East 171 197 4,100 -933 Descending FlightAware ADS-B
Wed 07:55:02 AM -23.4600 -46.5670 72° East 160 184 3,600 -933 Descending FlightAware ADS-B
Wed 07:55:17 AM -23.4570 -46.5540 76° East 155 178 3,400 -900 Descending FlightAware ADS-B
Wed 07:55:42 AM -23.4520 -46.5350 74° East 153 176 3,000 -873 Descending FlightAware ADS-B
Wed 07:56:12 AM -23.4460 -46.5130 73° East 153 176 2,600 -800 Descending FlightAware ADS-B
Wed 07:56:27 AM -23.4430 -46.5020 73° East 152 175 2,400 -800 Descending FlightAware ADS-B

Login

Don't have an account? Register now (free) for customized features, flight alerts, and more!